sensor_id;sensor_type;location;lat;lon;timestamp;temperature;humidity
35111;DHT22;21290;50.158;8.658;2022-11-04T00:01:29;10.90;99.90
35111;DHT22;21290;50.158;8.658;2022-11-04T00:03:56;10.80;99.90
35111;DHT22;21290;50.158;8.658;2022-11-04T00:06:23;10.90;99.90
35111;DHT22;21290;50.158;8.658;2022-11-04T00:08:50;10.90;99.90
35111;DHT22;21290;50.158;8.658;2022-11-04T00:11:17;10.90;99.90
35111;DHT22;21290;50.158;8.658;2022-11-04T00:14:03;10.90;99.90
35111;DHT22;21290;50.158;8.658;2022-11-04T00:16:29;10.90;99.90
35111;DHT22;21290;50.158;8.658;2022-11-04T00:19:15;11.00;99.90
35111;DHT22;21290;50.158;8.658;2022-11-04T00:21:41;11.00;99.90
35111;DHT22;21290;50.158;8.658;2022-11-04T00:24:27;11.00;99.90
35111;DHT22;21290;50.158;8.658;2022-11-04T00:27:09;11.00;99.90
35111;DHT22;21290;50.158;8.658;2022-11-04T00:29:54;11.00;99.90
35111;DHT22;21290;50.158;8.658;2022-11-04T00:32:21;11.00;99.90
35111;DHT22;21290;50.158;8.658;2022-11-04T00:35:06;11.10;99.90
35111;DHT22;21290;50.158;8.658;2022-11-04T00:37:37;11.00;99.90
35111;DHT22;21290;50.158;8.658;2022-11-04T00:40:04;11.00;99.90
35111;DHT22;21290;50.158;8.658;2022-11-04T00:42:31;11.00;99.90
35111;DHT22;21290;50.158;8.658;2022-11-04T00:44:58;11.00;99.90
35111;DHT22;21290;50.158;8.658;2022-11-04T00:47:24;11.00;99.90
35111;DHT22;21290;50.158;8.658;2022-11-04T00:49:51;11.00;99.90
35111;DHT22;21290;50.158;8.658;2022-11-04T00:52:17;10.90;99.90
35111;DHT22;21290;50.158;8.658;2022-11-04T00:54:43;10.90;99.90
35111;DHT22;21290;50.158;8.658;2022-11-04T00:57:10;10.90;99.90
35111;DHT22;21290;50.158;8.658;2022-11-04T00:59:37;10.90;99.90
35111;DHT22;21290;50.158;8.658;2022-11-04T01:02:03;10.90;99.90
35111;DHT22;21290;50.158;8.658;2022-11-04T01:04:30;10.90;99.90
35111;DHT22;21290;50.158;8.658;2022-11-04T01:06:56;10.90;99.90
35111;DHT22;21290;50.158;8.658;2022-11-04T01:09:23;10.90;99.90
35111;DHT22;21290;50.158;8.658;2022-11-04T01:11:49;10.90;99.90
35111;DHT22;21290;50.158;8.658;2022-11-04T01:14:16;10.90;99.90
35111;DHT22;21290;50.158;8.658;2022-11-04T01:16:42;10.90;99.90
35111;DHT22;21290;50.158;8.658;2022-11-04T01:19:09;10.80;99.90
35111;DHT22;21290;50.158;8.658;2022-11-04T01:21:36;10.90;99.90
35111;DHT22;21290;50.158;8.658;2022-11-04T01:24:02;10.90;99.90
35111;DHT22;21290;50.158;8.658;2022-11-04T01:26:29;10.90;99.90
35111;DHT22;21290;50.158;8.658;2022-11-04T01:28:56;10.90;99.90
35111;DHT22;21290;50.158;8.658;2022-11-04T01:31:24;10.90;99.90
35111;DHT22;21290;50.158;8.658;2022-11-04T01:33:51;10.90;99.90
35111;DHT22;21290;50.158;8.658;2022-11-04T01:36:18;10.90;99.90
35111;DHT22;21290;50.158;8.658;2022-11-04T01:38:45;10.90;99.90
35111;DHT22;21290;50.158;8.658;2022-11-04T01:41:17;10.90;99.90
35111;DHT22;21290;50.158;8.658;2022-11-04T01:43:57;10.80;99.90
35111;DHT22;21290;50.158;8.658;2022-11-04T01:48:55;10.80;99.90
35111;DHT22;21290;50.158;8.658;2022-11-04T01:51:23;10.80;99.90
35111;DHT22;21290;50.158;8.658;2022-11-04T01:53:50;10.80;99.90
35111;DHT22;21290;50.158;8.658;2022-11-04T01:56:18;10.80;99.90
35111;DHT22;21290;50.158;8.658;2022-11-04T01:58:47;10.80;99.90
35111;DHT22;21290;50.158;8.658;2022-11-04T02:01:14;10.80;99.90
35111;DHT22;21290;50.158;8.658;2022-11-04T02:03:52;10.80;99.90
35111;DHT22;21290;50.158;8.658;2022-11-04T02:06:19;10.80;99.90
35111;DHT22;21290;50.158;8.658;2022-11-04T02:08:47;10.80;99.90
35111;DHT22;21290;50.158;8.658;2022-11-04T02:11:14;10.70;99.90
35111;DHT22;21290;50.158;8.658;2022-11-04T02:14:01;10.70;99.90
35111;DHT22;21290;50.158;8.658;2022-11-04T02:16:32;10.60;99.90
35111;DHT22;21290;50.158;8.658;2022-11-04T02:19:18;10.60;99.90
35111;DHT22;21290;50.158;8.658;2022-11-04T02:24:38;10.50;99.90
35111;DHT22;21290;50.158;8.658;2022-11-04T02:27:15;10.40;99.90
35111;DHT22;21290;50.158;8.658;2022-11-04T02:29:45;10.40;99.90
35111;DHT22;21290;50.158;8.658;2022-11-04T02:32:21;10.40;99.90
35111;DHT22;21290;50.158;8.658;2022-11-04T02:34:54;10.30;99.90
35111;DHT22;21290;50.158;8.658;2022-11-04T02:40:17;10.30;99.90
35111;DHT22;21290;50.158;8.658;2022-11-04T02:42:52;10.30;99.90
35111;DHT22;21290;50.158;8.658;2022-11-04T02:45:23;10.30;99.90
35111;DHT22;21290;50.158;8.658;2022-11-04T02:47:57;10.30;99.90
35111;DHT22;21290;50.158;8.658;2022-11-04T02:55:51;10.20;99.90
35111;DHT22;21290;50.158;8.658;2022-11-04T02:58:21;10.20;99.90
35111;DHT22;21290;50.158;8.658;2022-11-04T03:00:49;10.10;99.90
35111;DHT22;21290;50.158;8.658;2022-11-04T03:03:18;10.20;99.90
35111;DHT22;21290;50.158;8.658;2022-11-04T03:05:47;10.10;99.90
35111;DHT22;21290;50.158;8.658;2022-11-04T03:08:16;10.10;99.90
35111;DHT22;21290;50.158;8.658;2022-11-04T03:10:47;10.10;99.90
35111;DHT22;21290;50.158;8.658;2022-11-04T03:13:21;10.20;99.90
35111;DHT22;21290;50.158;8.658;2022-11-04T03:15:50;10.10;99.90
35111;DHT22;21290;50.158;8.658;2022-11-04T03:18:42;10.10;99.90
35111;DHT22;21290;50.158;8.658;2022-11-04T03:21:06;10.10;99.90
35111;DHT22;21290;50.158;8.658;2022-11-04T03:23:34;10.00;99.90
35111;DHT22;21290;50.158;8.658;2022-11-04T03:26:10;10.00;99.90
35111;DHT22;21290;50.158;8.658;2022-11-04T03:31:26;9.90;99.90
35111;DHT22;21290;50.158;8.658;2022-11-04T03:33:54;9.80;99.90
35111;DHT22;21290;50.158;8.658;2022-11-04T03:36:21;9.80;99.90
35111;DHT22;21290;50.158;8.658;2022-11-04T03:38:49;9.80;99.90
35111;DHT22;21290;50.158;8.658;2022-11-04T03:41:22;9.80;99.90
35111;DHT22;21290;50.158;8.658;2022-11-04T03:43:49;9.80;99.90
35111;DHT22;21290;50.158;8.658;2022-11-04T03:46:16;9.80;99.90
35111;DHT22;21290;50.158;8.658;2022-11-04T03:48:42;9.80;99.90
35111;DHT22;21290;50.158;8.658;2022-11-04T03:51:10;9.70;99.90
35111;DHT22;21290;50.158;8.658;2022-11-04T03:53:37;9.70;99.90
35111;DHT22;21290;50.158;8.658;2022-11-04T03:56:11;9.70;99.90
35111;DHT22;21290;50.158;8.658;2022-11-04T04:02:00;9.60;99.90
35111;DHT22;21290;50.158;8.658;2022-11-04T04:04:34;9.60;99.90
35111;DHT22;21290;50.158;8.658;2022-11-04T04:07:22;9.60;99.90
35111;DHT22;21290;50.158;8.658;2022-11-04T04:10:03;9.60;99.90
35111;DHT22;21290;50.158;8.658;2022-11-04T04:12:52;9.50;99.90
35111;DHT22;21290;50.158;8.658;2022-11-04T04:15:22;9.50;99.90
35111;DHT22;21290;50.158;8.658;2022-11-04T04:17:54;9.40;99.90
35111;DHT22;21290;50.158;8.658;2022-11-04T04:20:22;9.40;99.90
35111;DHT22;21290;50.158;8.658;2022-11-04T04:23:05;9.40;99.90
35111;DHT22;21290;50.158;8.658;2022-11-04T04:25:52;9.30;99.90
35111;DHT22;21290;50.158;8.658;2022-11-04T04:28:38;9.30;99.90
35111;DHT22;21290;50.158;8.658;2022-11-04T04:31:06;9.30;99.90
35111;DHT22;21290;50.158;8.658;2022-11-04T04:33:33;9.20;99.90
35111;DHT22;21290;50.158;8.658;2022-11-04T04:35:59;9.20;99.90
35111;DHT22;21290;50.158;8.658;2022-11-04T04:38:26;9.20;99.90
35111;DHT22;21290;50.158;8.658;2022-11-04T04:41:16;9.20;99.90
35111;DHT22;21290;50.158;8.658;2022-11-04T04:44:03;9.20;99.90
35111;DHT22;21290;50.158;8.658;2022-11-04T04:46:49;9.10;99.90
35111;DHT22;21290;50.158;8.658;2022-11-04T04:49:17;9.10;99.90
35111;DHT22;21290;50.158;8.658;2022-11-04T04:51:44;9.10;99.90
35111;DHT22;21290;50.158;8.658;2022-11-04T04:54:11;9.10;99.90
35111;DHT22;21290;50.158;8.658;2022-11-04T04:56:37;9.10;99.90
35111;DHT22;21290;50.158;8.658;2022-11-04T04:59:04;9.00;99.90
35111;DHT22;21290;50.158;8.658;2022-11-04T05:01:31;9.00;99.90
35111;DHT22;21290;50.158;8.658;2022-11-04T05:03:58;9.00;99.90
35111;DHT22;21290;50.158;8.658;2022-11-04T05:06:24;9.00;99.90
35111;DHT22;21290;50.158;8.658;2022-11-04T05:08:52;9.10;99.90
35111;DHT22;21290;50.158;8.658;2022-11-04T05:11:18;9.00;99.90
35111;DHT22;21290;50.158;8.658;2022-11-04T05:13:51;9.00;99.90
35111;DHT22;21290;50.158;8.658;2022-11-04T05:16:18;9.00;99.90
35111;DHT22;21290;50.158;8.658;2022-11-04T05:18:44;9.00;99.90
35111;DHT22;21290;50.158;8.658;2022-11-04T05:21:12;9.00;99.90
35111;DHT22;21290;50.158;8.658;2022-11-04T05:23:39;9.00;99.90
35111;DHT22;21290;50.158;8.658;2022-11-04T05:26:05;9.00;99.90
35111;DHT22;21290;50.158;8.658;2022-11-04T05:28:32;9.00;99.90
35111;DHT22;21290;50.158;8.658;2022-11-04T05:31:02;9.00;99.90
35111;DHT22;21290;50.158;8.658;2022-11-04T05:33:29;9.00;99.90
35111;DHT22;21290;50.158;8.658;2022-11-04T05:36:04;8.90;99.90
35111;DHT22;21290;50.158;8.658;2022-11-04T05:38:30;8.90;99.90
35111;DHT22;21290;50.158;8.658;2022-11-04T05:40:57;8.90;99.90
35111;DHT22;21290;50.158;8.658;2022-11-04T05:43:23;8.90;99.90
35111;DHT22;21290;50.158;8.658;2022-11-04T05:45:50;8.80;99.90
35111;DHT22;21290;50.158;8.658;2022-11-04T05:48:16;8.90;99.90
35111;DHT22;21290;50.158;8.658;2022-11-04T05:50:43;8.80;99.90
35111;DHT22;21290;50.158;8.658;2022-11-04T05:53:10;8.80;99.90
35111;DHT22;21290;50.158;8.658;2022-11-04T05:55:40;8.70;99.90
35111;DHT22;21290;50.158;8.658;2022-11-04T05:58:08;8.80;99.90
35111;DHT22;21290;50.158;8.658;2022-11-04T06:00:36;8.80;99.90
35111;DHT22;21290;50.158;8.658;2022-11-04T06:03:02;8.70;99.90
35111;DHT22;21290;50.158;8.658;2022-11-04T06:05:29;8.70;99.90
35111;DHT22;21290;50.158;8.658;2022-11-04T06:07:55;8.70;99.90
35111;DHT22;21290;50.158;8.658;2022-11-04T06:10:22;8.80;99.90
35111;DHT22;21290;50.158;8.658;2022-11-04T06:12:49;8.80;99.90
35111;DHT22;21290;50.158;8.658;2022-11-04T06:15:15;8.80;99.90
35111;DHT22;21290;50.158;8.658;2022-11-04T06:17:42;8.90;99.90
35111;DHT22;21290;50.158;8.658;2022-11-04T06:20:08;9.00;99.90
35111;DHT22;21290;50.158;8.658;2022-11-04T06:22:35;9.10;99.90
35111;DHT22;21290;50.158;8.658;2022-11-04T06:25:01;9.10;99.90
35111;DHT22;21290;50.158;8.658;2022-11-04T06:27:28;9.20;99.90
35111;DHT22;21290;50.158;8.658;2022-11-04T06:29:54;9.20;99.90
35111;DHT22;21290;50.158;8.658;2022-11-04T06:32:21;9.20;99.90
35111;DHT22;21290;50.158;8.658;2022-11-04T06:34:47;9.20;99.90
35111;DHT22;21290;50.158;8.658;2022-11-04T06:37:14;9.20;99.90
35111;DHT22;21290;50.158;8.658;2022-11-04T06:39:40;9.10;99.90
35111;DHT22;21290;50.158;8.658;2022-11-04T06:42:07;9.10;99.90
35111;DHT22;21290;50.158;8.658;2022-11-04T06:44:33;9.10;99.90
35111;DHT22;21290;50.158;8.658;2022-11-04T06:47:00;9.10;99.90
35111;DHT22;21290;50.158;8.658;2022-11-04T06:49:27;9.00;99.90
35111;DHT22;21290;50.158;8.658;2022-11-04T06:51:53;9.00;99.90
35111;DHT22;21290;50.158;8.658;2022-11-04T06:54:20;9.00;99.90
35111;DHT22;21290;50.158;8.658;2022-11-04T06:56:46;9.00;99.90
35111;DHT22;21290;50.158;8.658;2022-11-04T06:59:14;9.00;99.90
35111;DHT22;21290;50.158;8.658;2022-11-04T07:01:41;9.00;99.90
35111;DHT22;21290;50.158;8.658;2022-11-04T07:04:09;9.10;99.90
35111;DHT22;21290;50.158;8.658;2022-11-04T07:06:35;9.10;99.90
35111;DHT22;21290;50.158;8.658;2022-11-04T07:09:06;9.10;99.90
35111;DHT22;21290;50.158;8.658;2022-11-04T07:11:32;9.20;99.90
35111;DHT22;21290;50.158;8.658;2022-11-04T07:13:59;9.30;99.90
35111;DHT22;21290;50.158;8.658;2022-11-04T07:16:25;9.30;99.90
35111;DHT22;21290;50.158;8.658;2022-11-04T07:18:53;9.30;99.90
35111;DHT22;21290;50.158;8.658;2022-11-04T07:21:19;9.40;99.90
35111;DHT22;21290;50.158;8.658;2022-11-04T07:23:46;9.50;99.90
35111;DHT22;21290;50.158;8.658;2022-11-04T07:26:13;9.60;99.90
35111;DHT22;21290;50.158;8.658;2022-11-04T07:28:39;9.60;99.90
35111;DHT22;21290;50.158;8.658;2022-11-04T07:31:06;9.70;99.90
35111;DHT22;21290;50.158;8.658;2022-11-04T07:33:33;9.70;99.90
35111;DHT22;21290;50.158;8.658;2022-11-04T07:36:07;9.80;99.90
35111;DHT22;21290;50.158;8.658;2022-11-04T07:38:34;9.80;99.90
35111;DHT22;21290;50.158;8.658;2022-11-04T07:41:00;9.90;99.90
35111;DHT22;21290;50.158;8.658;2022-11-04T07:43:28;10.00;99.90
35111;DHT22;21290;50.158;8.658;2022-11-04T07:45:58;10.00;99.90
35111;DHT22;21290;50.158;8.658;2022-11-04T07:48:25;10.10;99.90
35111;DHT22;21290;50.158;8.658;2022-11-04T07:50:53;10.20;99.90
35111;DHT22;21290;50.158;8.658;2022-11-04T07:53:20;10.30;99.90
35111;DHT22;21290;50.158;8.658;2022-11-04T07:55:46;10.40;99.90
35111;DHT22;21290;50.158;8.658;2022-11-04T07:58:17;10.50;99.90
35111;DHT22;21290;50.158;8.658;2022-11-04T08:00:44;10.50;99.90
35111;DHT22;21290;50.158;8.658;2022-11-04T08:03:10;10.60;99.90
35111;DHT22;21290;50.158;8.658;2022-11-04T08:05:37;10.50;99.90
35111;DHT22;21290;50.158;8.658;2022-11-04T08:08:04;10.50;99.90
35111;DHT22;21290;50.158;8.658;2022-11-04T08:10:31;10.50;99.90
35111;DHT22;21290;50.158;8.658;2022-11-04T08:12:57;10.50;99.90
35111;DHT22;21290;50.158;8.658;2022-11-04T08:15:24;10.50;99.90
35111;DHT22;21290;50.158;8.658;2022-11-04T08:17:50;10.50;99.90
35111;DHT22;21290;50.158;8.658;2022-11-04T08:20:17;10.40;99.90
35111;DHT22;21290;50.158;8.658;2022-11-04T08:22:43;10.40;99.90
35111;DHT22;21290;50.158;8.658;2022-11-04T08:25:09;10.30;99.90
35111;DHT22;21290;50.158;8.658;2022-11-04T08:27:38;10.40;99.90
35111;DHT22;21290;50.158;8.658;2022-11-04T08:30:05;10.30;99.90
35111;DHT22;21290;50.158;8.658;2022-11-04T08:32:32;10.40;99.90
35111;DHT22;21290;50.158;8.658;2022-11-04T08:34:58;10.40;99.90
35111;DHT22;21290;50.158;8.658;2022-11-04T08:37:24;10.40;99.90
35111;DHT22;21290;50.158;8.658;2022-11-04T08:39:51;10.40;99.90
35111;DHT22;21290;50.158;8.658;2022-11-04T08:42:17;10.50;99.90
35111;DHT22;21290;50.158;8.658;2022-11-04T08:44:44;10.50;99.90
35111;DHT22;21290;50.158;8.658;2022-11-04T08:47:10;10.50;99.90
35111;DHT22;21290;50.158;8.658;2022-11-04T08:49:37;10.60;99.90
35111;DHT22;21290;50.158;8.658;2022-11-04T08:52:04;10.70;99.90
35111;DHT22;21290;50.158;8.658;2022-11-04T08:54:31;10.70;99.90
35111;DHT22;21290;50.158;8.658;2022-11-04T08:57:00;10.70;99.90
35111;DHT22;21290;50.158;8.658;2022-11-04T08:59:26;10.60;99.90
35111;DHT22;21290;50.158;8.658;2022-11-04T09:01:53;10.60;99.90
35111;DHT22;21290;50.158;8.658;2022-11-04T09:04:19;10.60;99.90
35111;DHT22;21290;50.158;8.658;2022-11-04T09:06:46;10.60;99.90
35111;DHT22;21290;50.158;8.658;2022-11-04T09:09:14;10.70;99.90
35111;DHT22;21290;50.158;8.658;2022-11-04T09:11:41;10.70;99.90
35111;DHT22;21290;50.158;8.658;2022-11-04T09:14:08;10.70;99.90
35111;DHT22;21290;50.158;8.658;2022-11-04T09:16:35;10.80;99.90
35111;DHT22;21290;50.158;8.658;2022-11-04T09:19:02;10.90;99.90
35111;DHT22;21290;50.158;8.658;2022-11-04T09:21:29;11.00;99.90
35111;DHT22;21290;50.158;8.658;2022-11-04T09:23:56;11.00;99.90
35111;DHT22;21290;50.158;8.658;2022-11-04T09:26:23;11.10;99.90
35111;DHT22;21290;50.158;8.658;2022-11-04T09:28:55;11.10;99.90
35111;DHT22;21290;50.158;8.658;2022-11-04T09:31:23;11.00;99.90
35111;DHT22;21290;50.158;8.658;2022-11-04T09:33:50;11.10;99.90
35111;DHT22;21290;50.158;8.658;2022-11-04T09:36:16;11.10;99.90
35111;DHT22;21290;50.158;8.658;2022-11-04T09:38:43;11.20;99.90
35111;DHT22;21290;50.158;8.658;2022-11-04T09:41:17;11.30;99.90
35111;DHT22;21290;50.158;8.658;2022-11-04T09:43:52;11.50;99.90
35111;DHT22;21290;50.158;8.658;2022-11-04T09:46:23;11.70;99.90
35111;DHT22;21290;50.158;8.658;2022-11-04T09:48:50;11.90;99.90
35111;DHT22;21290;50.158;8.658;2022-11-04T09:51:19;12.40;99.90
35111;DHT22;21290;50.158;8.658;2022-11-04T09:54:09;13.20;99.90
35111;DHT22;21290;50.158;8.658;2022-11-04T09:56:38;14.10;99.90
35111;DHT22;21290;50.158;8.658;2022-11-04T09:59:07;14.30;99.90
35111;DHT22;21290;50.158;8.658;2022-11-04T10:09:01;13.60;99.90
35111;DHT22;21290;50.158;8.658;2022-11-04T10:11:34;13.60;99.90
35111;DHT22;21290;50.158;8.658;2022-11-04T10:14:19;13.50;99.90
35111;DHT22;21290;50.158;8.658;2022-11-04T10:26:53;13.70;99.90
35111;DHT22;21290;50.158;8.658;2022-11-04T10:29:34;13.70;99.90
35111;DHT22;21290;50.158;8.658;2022-11-04T10:32:04;13.70;99.90
35111;DHT22;21290;50.158;8.658;2022-11-04T10:34:39;13.50;99.90
35111;DHT22;21290;50.158;8.658;2022-11-04T10:37:10;13.60;99.90
35111;DHT22;21290;50.158;8.658;2022-11-04T10:39:40;13.70;99.90
35111;DHT22;21290;50.158;8.658;2022-11-04T10:42:09;13.90;99.90
35111;DHT22;21290;50.158;8.658;2022-11-04T10:44:36;14.10;99.90
35111;DHT22;21290;50.158;8.658;2022-11-04T10:52:45;14.60;99.90
35111;DHT22;21290;50.158;8.658;2022-11-04T10:55:14;14.80;99.90
35111;DHT22;21290;50.158;8.658;2022-11-04T10:57:44;15.50;99.90
35111;DHT22;21290;50.158;8.658;2022-11-04T11:00:11;16.40;99.90
35111;DHT22;21290;50.158;8.658;2022-11-04T11:02:57;16.70;99.90
35111;DHT22;21290;50.158;8.658;2022-11-04T11:05:25;16.50;99.90
35111;DHT22;21290;50.158;8.658;2022-11-04T11:07:53;16.40;99.90
35111;DHT22;21290;50.158;8.658;2022-11-04T11:12:53;15.70;99.90
35111;DHT22;21290;50.158;8.658;2022-11-04T11:17:52;14.60;99.90
35111;DHT22;21290;50.158;8.658;2022-11-04T11:20:23;14.90;99.90
35111;DHT22;21290;50.158;8.658;2022-11-04T11:22:50;15.60;99.90
35111;DHT22;21290;50.158;8.658;2022-11-04T11:25:21;16.20;99.90
35111;DHT22;21290;50.158;8.658;2022-11-04T11:27:52;17.00;99.90
35111;DHT22;21290;50.158;8.658;2022-11-04T11:30:24;17.80;99.90
35111;DHT22;21290;50.158;8.658;2022-11-04T11:32:52;18.30;99.90
35111;DHT22;21290;50.158;8.658;2022-11-04T11:35:21;17.90;99.90
35111;DHT22;21290;50.158;8.658;2022-11-04T11:37:48;17.70;99.90
35111;DHT22;21290;50.158;8.658;2022-11-04T11:40:49;16.80;99.90
35111;DHT22;21290;50.158;8.658;2022-11-04T11:43:28;16.40;99.90
35111;DHT22;21290;50.158;8.658;2022-11-04T11:45:56;15.80;99.90
35111;DHT22;21290;50.158;8.658;2022-11-04T11:48:40;15.60;99.90
35111;DHT22;21290;50.158;8.658;2022-11-04T11:51:10;15.40;99.90
35111;DHT22;21290;50.158;8.658;2022-11-04T11:53:37;15.50;99.90
35111;DHT22;21290;50.158;8.658;2022-11-04T11:56:17;15.60;99.90
35111;DHT22;21290;50.158;8.658;2022-11-04T11:58:54;15.70;99.90
35111;DHT22;21290;50.158;8.658;2022-11-04T12:01:45;15.70;99.90
35111;DHT22;21290;50.158;8.658;2022-11-04T12:04:16;15.80;99.90
35111;DHT22;21290;50.158;8.658;2022-11-04T12:10:08;16.10;99.90
35111;DHT22;21290;50.158;8.658;2022-11-04T12:12:52;16.30;99.90
35111;DHT22;21290;50.158;8.658;2022-11-04T12:18:14;16.40;99.90
35111;DHT22;21290;50.158;8.658;2022-11-04T12:20:51;16.70;99.90
35111;DHT22;21290;50.158;8.658;2022-11-04T12:23:23;17.00;99.90
35111;DHT22;21290;50.158;8.658;2022-11-04T12:25:58;17.20;99.90
35111;DHT22;21290;50.158;8.658;2022-11-04T12:28:33;17.10;99.90
35111;DHT22;21290;50.158;8.658;2022-11-04T12:31:23;16.90;99.90
35111;DHT22;21290;50.158;8.658;2022-11-04T12:41:54;16.80;99.90
35111;DHT22;21290;50.158;8.658;2022-11-04T12:44:51;16.60;99.90
35111;DHT22;21290;50.158;8.658;2022-11-04T12:47:23;16.20;99.90
35111;DHT22;21290;50.158;8.658;2022-11-04T12:49:57;15.90;99.90
35111;DHT22;21290;50.158;8.658;2022-11-04T12:52:30;15.60;99.90
35111;DHT22;21290;50.158;8.658;2022-11-04T12:55:10;15.50;99.90
35111;DHT22;21290;50.158;8.658;2022-11-04T13:00:25;15.10;99.90
35111;DHT22;21290;50.158;8.658;2022-11-04T13:03:04;15.10;99.90
35111;DHT22;21290;50.158;8.658;2022-11-04T13:05:37;15.10;99.90
35111;DHT22;21290;50.158;8.658;2022-11-04T13:08:09;15.10;99.90
35111;DHT22;21290;50.158;8.658;2022-11-04T13:13:09;15.10;99.90
35111;DHT22;21290;50.158;8.658;2022-11-04T13:16:20;15.00;99.90
35111;DHT22;21290;50.158;8.658;2022-11-04T13:18:29;15.00;99.90
35111;DHT22;21290;50.158;8.658;2022-11-04T13:21:01;15.00;99.90
35111;DHT22;21290;50.158;8.658;2022-11-04T13:26:15;15.00;99.90
35111;DHT22;21290;50.158;8.658;2022-11-04T13:28:43;14.90;99.90
35111;DHT22;21290;50.158;8.658;2022-11-04T13:31:14;14.90;99.90
35111;DHT22;21290;50.158;8.658;2022-11-04T13:38:42;14.80;99.90
35111;DHT22;21290;50.158;8.658;2022-11-04T13:43:40;14.60;99.90
35111;DHT22;21290;50.158;8.658;2022-11-04T13:48:40;14.40;99.90
35111;DHT22;21290;50.158;8.658;2022-11-04T13:51:14;14.40;99.90
35111;DHT22;21290;50.158;8.658;2022-11-04T13:56:24;14.40;99.90
35111;DHT22;21290;50.158;8.658;2022-11-04T13:59:17;14.50;99.90
35111;DHT22;21290;50.158;8.658;2022-11-04T14:01:44;14.40;99.90
35111;DHT22;21290;50.158;8.658;2022-11-04T14:06:56;14.30;99.90
35111;DHT22;21290;50.158;8.658;2022-11-04T14:10:34;14.30;99.90
35111;DHT22;21290;50.158;8.658;2022-11-04T14:14:40;14.10;99.90
35111;DHT22;21290;50.158;8.658;2022-11-04T14:22:21;13.70;99.90
35111;DHT22;21290;50.158;8.658;2022-11-04T14:24:55;13.70;99.90
35111;DHT22;21290;50.158;8.658;2022-11-04T14:27:38;13.60;99.90
35111;DHT22;21290;50.158;8.658;2022-11-04T14:30:06;13.50;99.90
35111;DHT22;21290;50.158;8.658;2022-11-04T14:32:50;13.50;99.90
35111;DHT22;21290;50.158;8.658;2022-11-04T14:35:20;13.50;99.90
35111;DHT22;21290;50.158;8.658;2022-11-04T14:37:49;13.40;99.90
35111;DHT22;21290;50.158;8.658;2022-11-04T14:40:24;13.30;99.90
35111;DHT22;21290;50.158;8.658;2022-11-04T14:42:54;13.30;99.90
35111;DHT22;21290;50.158;8.658;2022-11-04T14:45:25;13.30;99.90
35111;DHT22;21290;50.158;8.658;2022-11-04T14:47:56;13.20;99.90
35111;DHT22;21290;50.158;8.658;2022-11-04T14:50:26;13.10;99.90
35111;DHT22;21290;50.158;8.658;2022-11-04T14:55:20;13.10;99.90
35111;DHT22;21290;50.158;8.658;2022-11-04T14:57:48;13.00;99.90
35111;DHT22;21290;50.158;8.658;2022-11-04T15:02:57;13.00;99.90
35111;DHT22;21290;50.158;8.658;2022-11-04T15:05:25;13.00;99.90
35111;DHT22;21290;50.158;8.658;2022-11-04T15:07:52;12.90;99.90
35111;DHT22;21290;50.158;8.658;2022-11-04T15:10:20;12.90;99.90
35111;DHT22;21290;50.158;8.658;2022-11-04T15:12:47;12.90;99.90
35111;DHT22;21290;50.158;8.658;2022-11-04T15:17:49;12.80;99.90
35111;DHT22;21290;50.158;8.658;2022-11-04T15:20:21;12.80;99.90
35111;DHT22;21290;50.158;8.658;2022-11-04T15:22:49;12.70;99.90
35111;DHT22;21290;50.158;8.658;2022-11-04T15:25:16;12.50;99.90
35111;DHT22;21290;50.158;8.658;2022-11-04T15:27:43;12.40;99.90
35111;DHT22;21290;50.158;8.658;2022-11-04T15:30:21;12.30;99.90
35111;DHT22;21290;50.158;8.658;2022-11-04T15:32:55;12.20;99.90
35111;DHT22;21290;50.158;8.658;2022-11-04T15:35:21;12.10;99.90
35111;DHT22;21290;50.158;8.658;2022-11-04T15:37:49;12.00;99.90
35111;DHT22;21290;50.158;8.658;2022-11-04T15:40:17;11.90;99.90
35111;DHT22;21290;50.158;8.658;2022-11-04T15:42:44;11.90;99.90
35111;DHT22;21290;50.158;8.658;2022-11-04T15:47:47;11.80;99.90
35111;DHT22;21290;50.158;8.658;2022-11-04T15:50:15;11.80;99.90
35111;DHT22;21290;50.158;8.658;2022-11-04T15:52:50;11.70;99.90
35111;DHT22;21290;50.158;8.658;2022-11-04T15:55:19;11.60;99.90
35111;DHT22;21290;50.158;8.658;2022-11-04T15:57:46;11.60;99.90
35111;DHT22;21290;50.158;8.658;2022-11-04T16:02:46;11.50;99.90
35111;DHT22;21290;50.158;8.658;2022-11-04T16:07:41;11.50;99.90
35111;DHT22;21290;50.158;8.658;2022-11-04T16:12:54;11.50;99.90
35111;DHT22;21290;50.158;8.658;2022-11-04T16:15:35;11.50;99.90
35111;DHT22;21290;50.158;8.658;2022-11-04T16:18:03;11.50;99.90
35111;DHT22;21290;50.158;8.658;2022-11-04T16:20:30;11.50;99.90
35111;DHT22;21290;50.158;8.658;2022-11-04T16:22:58;11.50;99.90
35111;DHT22;21290;50.158;8.658;2022-11-04T16:25:25;11.50;99.90
35111;DHT22;21290;50.158;8.658;2022-11-04T16:27:53;11.60;99.90
35111;DHT22;21290;50.158;8.658;2022-11-04T16:30:20;11.60;99.90
35111;DHT22;21290;50.158;8.658;2022-11-04T16:32:49;11.60;99.90
35111;DHT22;21290;50.158;8.658;2022-11-04T16:35:20;11.60;99.90
35111;DHT22;21290;50.158;8.658;2022-11-04T16:37:47;11.50;99.90
35111;DHT22;21290;50.158;8.658;2022-11-04T16:40:14;11.50;99.90
35111;DHT22;21290;50.158;8.658;2022-11-04T16:42:41;11.50;99.90
35111;DHT22;21290;50.158;8.658;2022-11-04T16:45:12;11.50;99.90
35111;DHT22;21290;50.158;8.658;2022-11-04T16:47:42;11.50;99.90
35111;DHT22;21290;50.158;8.658;2022-11-04T16:50:11;11.60;99.90
35111;DHT22;21290;50.158;8.658;2022-11-04T16:52:38;11.60;99.90
35111;DHT22;21290;50.158;8.658;2022-11-04T16:55:13;11.50;99.90
35111;DHT22;21290;50.158;8.658;2022-11-04T16:57:40;11.60;99.90
35111;DHT22;21290;50.158;8.658;2022-11-04T17:00:07;11.50;99.90
35111;DHT22;21290;50.158;8.658;2022-11-04T17:02:34;11.60;99.90
35111;DHT22;21290;50.158;8.658;2022-11-04T17:05:03;11.50;99.90
35111;DHT22;21290;50.158;8.658;2022-11-04T17:07:30;11.50;99.90
35111;DHT22;21290;50.158;8.658;2022-11-04T17:10:19;11.50;99.90
35111;DHT22;21290;50.158;8.658;2022-11-04T17:12:45;11.50;99.90
35111;DHT22;21290;50.158;8.658;2022-11-04T17:15:13;11.50;99.90
35111;DHT22;21290;50.158;8.658;2022-11-04T17:17:39;11.50;99.90
35111;DHT22;21290;50.158;8.658;2022-11-04T17:20:06;11.40;99.90
35111;DHT22;21290;50.158;8.658;2022-11-04T17:22:36;11.40;99.90
35111;DHT22;21290;50.158;8.658;2022-11-04T17:25:13;11.30;99.90
35111;DHT22;21290;50.158;8.658;2022-11-04T17:27:42;11.30;99.90
35111;DHT22;21290;50.158;8.658;2022-11-04T17:30:12;11.20;99.90
35111;DHT22;21290;50.158;8.658;2022-11-04T17:32:41;11.20;99.90
35111;DHT22;21290;50.158;8.658;2022-11-04T17:35:08;11.20;99.90
35111;DHT22;21290;50.158;8.658;2022-11-04T17:37:37;11.10;99.90
35111;DHT22;21290;50.158;8.658;2022-11-04T17:40:05;11.10;99.90
35111;DHT22;21290;50.158;8.658;2022-11-04T17:42:33;11.10;99.90
35111;DHT22;21290;50.158;8.658;2022-11-04T17:45:20;11.10;99.90